This is the latest recevied weather packets stored in our database for station/object EA1FWM-12. If no packets are shown the sender has not sent any weather packets the latest 10 day(s).
| Time | Temp. | Humidity | Pressure | Rain* | Wind** | Luminosity | Snow |
|---|---|---|---|---|---|---|---|
| 1777559366 | 20° C | 59% | 1020.2 hPa | - | - | - | - |
| 1777557568 | 18.89° C | 63% | 1020.3 hPa | - | - | - | - |
| 1777555770 | 17.22° C | 64% | 1020.1 hPa | - | - | - | - |
| 1777554877 | 17.78° C | 61% | 1020.3 hPa | - | - | - | - |
| 1777553070 | 18.89° C | 59% | 1020 hPa | - | - | - | - |
| 1777552170 | 21.67° C | 58% | 1020.2 hPa | - | - | - | - |
| 1777551270 | 21.67° C | 60% | 1020.1 hPa | - | - | - | - |
| 1777550370 | 20.56° C | 61% | 1020.2 hPa | - | - | - | - |
| 1777548570 | 18.89° C | 66% | 1020.1 hPa | - | - | - | - |
| 1777547670 | 18.89° C | 68% | 1020.1 hPa | - | - | - | - |
| 1777546771 | 17.78° C | 72% | 1020.1 hPa | - | - | - | - |
| 1777545872 | 16.11° C | 73% | 1020.1 hPa | - | - | - | - |
| 1777544971 | 15.56° C | 76% | 1020.1 hPa | - | - | - | - |
| 1777544071 | 14.44° C | 77% | 1019.9 hPa | - | - | - | - |
| 1777543171 | 13.89° C | 77% | 1019.8 hPa | - | - | - | - |
| 1777542272 | 13.33° C | 79% | 1019.6 hPa | - | - | - | - |
| 1777541372 | 12.78° C | 80% | 1019.5 hPa | - | - | - | - |
| 1777540472 | 12.78° C | 81% | 1019.4 hPa | - | - | - | - |
| 1777539572 | 12.78° C | 80% | 1019.3 hPa | - | - | - | - |
| 1777538672 | 12.78° C | 81% | 1019.2 hPa | - | - | - | - |
| 1777537773 | 13.33° C | 81% | 1019.1 hPa | - | - | - | - |
| 1777536873 | 12.78° C | 83% | 1018.9 hPa | - | - | - | - |
| 1777535973 | 12.22° C | 83% | 1018.8 hPa | - | - | - | - |
| 1777535074 | 12.22° C | 84% | 1018.7 hPa | - | - | - | - |
| 1777534205 | 11.67° C | 85% | 1018.5 hPa | - | - | - | - |
* Rain since midnight (hover to see other rain measurements)
** Current wind speed in m/s (hover to see current wind gust speed)